Terminal Aerodrome Forecast
Issued by NWS

Home | Current Version | Previous Version | Text Only | Print | Product List | Glossary On
Versions: 1 2 3 4 5 6 7 8 9 10 11 12 13 14 15 16
003
FTAK31 PAJN 182330
TAFAKT
TAF
PAKT 182330Z 1900/1924 14012KT 6SM -SHRA FEW005 SCT025 OVC035
     FM190600 13007KT P6SM VCSH SCT025 OVC040
     FM191100 14009KT 6SM -SHRA SCT010 BKN025 OVC040
     FM192100 14012KT 4SM -RA BR BKN015 OVC025
      AMD LTD TO CLD VIS AND WIND 1906/1915=

USA.gov is the U.S. government's official web portal to all federal, state and local government web resources and services.